Time;durP1;ratioP1;P1;durP2;ratioP2;P2;SDS_P1;SDS_P2;PMS_P1;PMS_P2;Temp;Humidity;BMP_temperature;BMP_pressure;BME280_temperature;BME280_humidity;BME280_pressure;Samples;Min_cycle;Max_cycle;Signal;HPM_P1;HPM_P2
2023/10/05 00:00:47;;;;;;;10.15;2.08;;;;;;;;;;5088150;28;20044;-69
2023/10/05 00:03:13;;;;;;;6.45;2.28;;;;;;;;;;5077077;28;20398;-69
2023/10/05 00:05:39;;;;;;;7.68;2.35;;;;;;;;;;5081215;28;20517;-69
2023/10/05 00:08:05;;;;;;;7.70;1.90;;;;;;;;;;5090816;28;20042;-69
2023/10/05 00:10:34;;;;;;;6.32;2.20;;;;;;;;;;5091290;28;20059;-69
2023/10/05 00:13:07;;;;;;;6.35;1.80;;;;;;;;;;5059974;28;20044;-69
2023/10/05 00:15:36;;;;;;;9.63;2.10;;;;;;;;;;5079147;28;20051;-68
2023/10/05 00:18:03;;;;;;;8.60;2.17;;;;;;;;;;5087690;28;20110;-68
2023/10/05 00:20:38;;;;;;;11.57;2.58;;;;;;;;;;5091612;28;20040;-68
2023/10/05 00:23:08;;;;;;;8.20;1.88;;;;;;;;;;5089000;28;20052;-68
2023/10/05 00:25:34;;;;;;;6.93;1.80;;;;;;;;;;5089859;28;20044;-68
2023/10/05 00:28:04;;;;;;;8.18;2.38;;;;;;;;;;5079941;28;20562;-68
2023/10/05 00:30:30;;;;;;;8.45;2.10;;;;;;;;;;5085658;28;20048;-68
2023/10/05 00:32:59;;;;;;;8.27;2.53;;;;;;;;;;5089248;28;20043;-68
2023/10/05 00:35:32;;;;;;;5.30;1.90;;;;;;;;;;5082982;28;20149;-68
2023/10/05 00:40:37;;;;;;;5.68;2.17;;;;;;;;;;5090527;28;20451;-68
2023/10/05 00:43:12;;;;;;;8.95;2.30;;;;;;;;;;5078175;28;20041;-68
2023/10/05 00:45:39;;;;;;;13.23;2.30;;;;;;;;;;5079534;28;20049;-68
2023/10/05 00:48:28;;;;;;;7.55;2.47;;;;;;;;;;5084628;28;20591;-68
2023/10/05 00:50:59;;;;;;;6.15;2.15;;;;;;;;;;5067476;28;20032;-68
2023/10/05 00:53:27;;;;;;;8.48;2.38;;;;;;;;;;5082982;28;20040;-68
2023/10/05 00:56:07;;;;;;;9.32;2.10;;;;;;;;;;5084235;28;20036;-68
2023/10/05 00:58:37;;;;;;;6.90;2.00;;;;;;;;;;5103307;22;20096;-72
2023/10/05 01:01:05;;;;;;;6.22;2.13;;;;;;;;;;5071656;28;20047;-72
2023/10/05 01:03:35;;;;;;;9.65;2.42;;;;;;;;;;5090176;28;20051;-72
2023/10/05 01:06:12;;;;;;;10.45;2.10;;;;;;;;;;5090891;28;20048;-72
2023/10/05 01:08:49;;;;;;;7.40;1.98;;;;;;;;;;5087414;28;20044;-72
2023/10/05 01:11:25;;;;;;;6.55;1.90;;;;;;;;;;5086969;28;20032;-72
2023/10/05 01:13:52;;;;;;;9.98;2.40;;;;;;;;;;5082870;28;20149;-72
2023/10/05 01:16:20;;;;;;;11.45;2.38;;;;;;;;;;5082896;28;20442;-72
2023/10/05 01:18:47;;;;;;;7.97;2.20;;;;;;;;;;5076362;28;20044;-72
2023/10/05 01:21:16;;;;;;;7.75;2.13;;;;;;;;;;5059817;28;20044;-72
2023/10/05 01:23:44;;;;;;;9.90;2.03;;;;;;;;;;5087026;28;20135;-72
2023/10/05 01:26:13;;;;;;;8.07;1.98;;;;;;;;;;5091311;28;20050;-72
2023/10/05 01:28:41;;;;;;;9.68;2.40;;;;;;;;;;5084120;28;20063;-72
2023/10/05 01:31:09;;;;;;;8.38;2.63;;;;;;;;;;5079863;28;20044;-71
2023/10/05 01:33:37;;;;;;;8.18;2.22;;;;;;;;;;5083517;28;20037;-71
2023/10/05 01:36:06;;;;;;;8.40;2.38;;;;;;;;;;5092044;28;20074;-71
2023/10/05 01:38:37;;;;;;;8.30;2.45;;;;;;;;;;5089279;28;20040;-71
2023/10/05 01:41:04;;;;;;;8.05;2.10;;;;;;;;;;5091542;28;20041;-72
2023/10/05 01:43:30;;;;;;;8.50;2.35;;;;;;;;;;5086327;28;20478;-72
2023/10/05 01:45:56;;;;;;;10.25;2.53;;;;;;;;;;5082096;28;20040;-72
2023/10/05 01:48:27;;;;;;;6.60;2.40;;;;;;;;;;5076574;28;20513;-72
2023/10/05 01:50:54;;;;;;;7.65;2.60;;;;;;;;;;5069198;28;20048;-72
2023/10/05 01:53:20;;;;;;;5.72;2.33;;;;;;;;;;5086284;28;20040;-72
2023/10/05 01:55:50;;;;;;;7.82;2.40;;;;;;;;;;5088399;28;20118;-72
2023/10/05 01:58:22;;;;;;;4.93;2.03;;;;;;;;;;5091095;28;20040;-72
2023/10/05 02:00:48;;;;;;;8.50;2.85;;;;;;;;;;5082235;28;20051;-72
2023/10/05 02:03:17;;;;;;;6.07;2.28;;;;;;;;;;5068083;28;20048;-72
2023/10/05 02:05:44;;;;;;;6.25;2.30;;;;;;;;;;5087404;28;20507;-72
2023/10/05 02:08:12;;;;;;;11.60;2.38;;;;;;;;;;5081877;28;20037;-72
2023/10/05 02:10:40;;;;;;;6.60;2.45;;;;;;;;;;5087766;28;20043;-72
2023/10/05 02:13:11;;;;;;;6.25;2.20;;;;;;;;;;5091267;28;20496;-72
2023/10/05 02:15:39;;;;;;;10.80;3.20;;;;;;;;;;5088116;28;20048;-72
2023/10/05 02:18:18;;;;;;;11.15;2.72;;;;;;;;;;5092316;28;20032;-72
2023/10/05 02:20:50;;;;;;;6.85;2.42;;;;;;;;;;5087977;28;20402;-72
2023/10/05 02:23:25;;;;;;;7.82;2.20;;;;;;;;;;5092507;28;20039;-72
2023/10/05 02:25:59;;;;;;;7.00;2.17;;;;;;;;;;5090472;28;20402;-72
2023/10/05 02:28:25;;;;;;;10.13;2.25;;;;;;;;;;5091629;28;20032;-72
2023/10/05 02:30:59;;;;;;;10.85;2.50;;;;;;;;;;5092799;28;20535;-72
2023/10/05 02:33:27;;;;;;;7.78;2.20;;;;;;;;;;5093090;28;20520;-72
2023/10/05 02:35:59;;;;;;;6.93;2.50;;;;;;;;;;5087721;28;20055;-72
2023/10/05 02:38:25;;;;;;;5.82;2.60;;;;;;;;;;5084958;28;20094;-71
2023/10/05 02:40:59;;;;;;;7.15;2.40;;;;;;;;;;5082501;28;20047;-71
2023/10/05 02:43:27;;;;;;;6.43;2.50;;;;;;;;;;5087047;28;20055;-71
2023/10/05 02:46:08;;;;;;;8.68;2.60;;;;;;;;;;5085618;28;20115;-71
2023/10/05 02:48:36;;;;;;;6.93;2.33;;;;;;;;;;5086800;28;20039;-72
2023/10/05 02:51:05;;;;;;;9.02;2.72;;;;;;;;;;5085331;28;20040;-72
2023/10/05 02:53:40;;;;;;;10.43;2.55;;;;;;;;;;5088265;28;20044;-72
2023/10/05 02:56:15;;;;;;;10.63;2.40;;;;;;;;;;5088787;28;20075;-72
2023/10/05 02:58:44;;;;;;;7.82;2.38;;;;;;;;;;5082664;28;20051;-71
2023/10/05 03:01:10;;;;;;;10.38;2.70;;;;;;;;;;5074270;28;20508;-71
2023/10/05 03:03:36;;;;;;;8.45;2.20;;;;;;;;;;5083109;28;20090;-71
2023/10/05 03:06:05;;;;;;;7.97;2.50;;;;;;;;;;5085469;28;20036;-71
2023/10/05 03:08:35;;;;;;;9.27;2.75;;;;;;;;;;5085895;28;20032;-71
2023/10/05 03:11:01;;;;;;;8.05;2.70;;;;;;;;;;5083849;28;20093;-71
2023/10/05 03:13:27;;;;;;;11.15;2.60;;;;;;;;;;5086648;28;20450;-71
2023/10/05 03:15:55;;;;;;;7.15;2.35;;;;;;;;;;5090279;28;20071;-72
2023/10/05 03:18:21;;;;;;;9.18;2.28;;;;;;;;;;5072131;28;20043;-71
2023/10/05 03:20:47;;;;;;;9.57;2.60;;;;;;;;;;5071090;28;20040;-71
2023/10/05 03:23:16;;;;;;;10.82;3.15;;;;;;;;;;5090545;28;20079;-71
2023/10/05 03:25:45;;;;;;;10.55;2.63;;;;;;;;;;5083485;28;20512;-71
2023/10/05 03:28:11;;;;;;;9.82;2.40;;;;;;;;;;5080058;28;20375;-72
2023/10/05 03:30:37;;;;;;;12.65;2.50;;;;;;;;;;5087841;28;20558;-72
2023/10/05 03:33:04;;;;;;;10.77;2.35;;;;;;;;;;5091515;28;20036;-72
2023/10/05 03:35:33;;;;;;;9.55;2.55;;;;;;;;;;5088473;28;20036;-72
2023/10/05 03:38:00;;;;;;;11.25;3.10;;;;;;;;;;5092150;28;20048;-72
2023/10/05 03:40:35;;;;;;;6.70;2.70;;;;;;;;;;5092235;28;20493;-72
2023/10/05 03:43:01;;;;;;;10.20;3.00;;;;;;;;;;5088727;28;20063;-72
2023/10/05 03:45:27;;;;;;;5.20;2.30;;;;;;;;;;5070848;28;20039;-72
2023/10/05 03:47:56;;;;;;;7.68;2.55;;;;;;;;;;5092640;28;20035;-72
2023/10/05 03:50:22;;;;;;;6.88;2.40;;;;;;;;;;5074467;28;20393;-72
2023/10/05 03:52:48;;;;;;;7.05;2.30;;;;;;;;;;5072883;28;20032;-72
2023/10/05 03:55:19;;;;;;;5.85;2.10;;;;;;;;;;5076600;28;20124;-72
2023/10/05 03:57:45;;;;;;;8.18;2.40;;;;;;;;;;5088641;28;20071;-72
2023/10/05 04:00:31;;;;;;;8.23;2.67;;;;;;;;;;5090051;28;20036;-72
2023/10/05 04:02:58;;;;;;;7.78;2.40;;;;;;;;;;5064068;28;20107;-72
2023/10/05 04:05:24;;;;;;;10.73;2.55;;;;;;;;;;5068819;28;20032;-72
2023/10/05 04:07:52;;;;;;;10.70;2.30;;;;;;;;;;5086565;28;20040;-72
2023/10/05 04:10:23;;;;;;;11.32;2.55;;;;;;;;;;5084590;28;20039;-72
2023/10/05 04:12:49;;;;;;;;;;;;;;;;;;5081230;28;20521;-72
2023/10/05 04:15:18;;;;;;;6.47;2.60;;;;;;;;;;5091616;28;19923;-71
2023/10/05 04:17:45;;;;;;;8.98;2.55;;;;;;;;;;5090812;28;20040;-71
2023/10/05 04:20:27;;;;;;;9.18;2.50;;;;;;;;;;5091734;28;20055;-72
2023/10/05 04:22:53;;;;;;;12.50;3.08;;;;;;;;;;5089846;28;20039;-71
2023/10/05 04:25:19;;;;;;;11.75;2.92;;;;;;;;;;5090146;28;20043;-71
2023/10/05 04:27:48;;;;;;;8.10;2.40;;;;;;;;;;5090857;28;20059;-72
2023/10/05 04:30:18;;;;;;;9.80;2.70;;;;;;;;;;5091841;28;20490;-72
2023/10/05 04:32:44;;;;;;;9.95;2.63;;;;;;;;;;5089112;28;20036;-72
2023/10/05 04:35:23;;;;;;;9.43;2.72;;;;;;;;;;5088482;28;20523;-72
2023/10/05 04:37:54;;;;;;;10.57;2.67;;;;;;;;;;5088589;28;20059;-72
2023/10/05 04:40:24;;;;;;;7.28;2.40;;;;;;;;;;5091706;28;20040;-72
2023/10/05 04:42:51;;;;;;;7.17;2.33;;;;;;;;;;5090975;28;20479;-72
2023/10/05 04:45:17;;;;;;;7.20;2.80;;;;;;;;;;5087310;28;20079;-72
2023/10/05 04:47:45;;;;;;;8.65;2.30;;;;;;;;;;5091463;28;20066;-72
2023/10/05 04:50:15;;;;;;;10.15;2.72;;;;;;;;;;5088995;28;20036;-72
2023/10/05 04:52:41;;;;;;;10.18;2.80;;;;;;;;;;5088708;28;20387;-72
2023/10/05 04:55:17;;;;;;;10.15;2.30;;;;;;;;;;5088688;28;20043;-72
2023/10/05 04:57:50;;;;;;;11.05;3.40;;;;;;;;;;5067783;28;20068;-72
2023/10/05 05:08:35;;;;;;;9.55;2.90;;;;;;;;;;5089590;28;20211;-72
2023/10/05 05:11:00;;;;;;;11.73;2.70;;;;;;;;;;5076327;28;20044;-72
2023/10/05 05:13:29;;;;;;;12.43;2.58;;;;;;;;;;5093771;28;20039;-72
2023/10/05 05:15:57;;;;;;;10.50;2.50;;;;;;;;;;5094203;28;20047;-72
2023/10/05 05:18:23;;;;;;;6.78;2.33;;;;;;;;;;5092962;28;20445;-72
2023/10/05 05:20:49;;;;;;;9.00;2.50;;;;;;;;;;5093502;28;20382;-72
2023/10/05 05:23:16;;;;;;;10.48;2.10;;;;;;;;;;5089161;28;20090;-72
2023/10/05 05:25:44;;;;;;;9.95;2.30;;;;;;;;;;5086397;28;20052;-72
2023/10/05 05:28:10;;;;;;;13.13;2.65;;;;;;;;;;5090758;28;20512;-72
2023/10/05 05:30:40;;;;;;;9.05;2.20;;;;;;;;;;5088656;28;20040;-72
2023/10/05 05:33:10;;;;;;;9.77;2.22;;;;;;;;;;5085235;28;20044;-72
2023/10/05 05:35:40;;;;;;;7.22;2.13;;;;;;;;;;5089138;28;20128;-72
2023/10/05 05:38:09;;;;;;;9.93;2.70;;;;;;;;;;5088445;28;20071;-72
2023/10/05 05:40:36;;;;;;;9.23;2.58;;;;;;;;;;5090192;28;20040;-72
2023/10/05 05:43:08;;;;;;;10.77;2.83;;;;;;;;;;5090745;28;20047;-72
2023/10/05 05:45:34;;;;;;;11.18;2.38;;;;;;;;;;5089353;28;20068;-72
2023/10/05 05:48:00;;;;;;;11.25;2.58;;;;;;;;;;5086880;28;20066;-72
2023/10/05 05:50:29;;;;;;;10.85;2.88;;;;;;;;;;5089965;28;20081;-72
2023/10/05 05:52:56;;;;;;;9.98;2.90;;;;;;;;;;5087066;28;20405;-72
2023/10/05 05:55:23;;;;;;;9.40;2.50;;;;;;;;;;5094644;28;20062;-72
2023/10/05 05:57:52;;;;;;;10.55;2.72;;;;;;;;;;5067787;28;20101;-72
2023/10/05 06:00:18;;;;;;;7.20;2.80;;;;;;;;;;5086936;28;20055;-72
2023/10/05 06:02:46;;;;;;;8.77;2.22;;;;;;;;;;5087066;28;20043;-72
2023/10/05 06:05:12;;;;;;;7.68;3.13;;;;;;;;;;5089677;28;20044;-72
2023/10/05 06:07:42;;;;;;;9.25;2.58;;;;;;;;;;5087581;28;20486;-71
2023/10/05 06:10:12;;;;;;;10.05;2.45;;;;;;;;;;5092051;28;20043;-71
2023/10/05 06:12:39;;;;;;;10.43;2.75;;;;;;;;;;5088605;28;20562;-71
2023/10/05 06:15:05;;;;;;;15.27;2.67;;;;;;;;;;5082212;28;20152;-71
2023/10/05 06:17:32;;;;;;;8.80;2.75;;;;;;;;;;5078533;28;20397;-71
2023/10/05 06:19:58;;;;;;;10.80;2.53;;;;;;;;;;5087847;28;20561;-71
2023/10/05 06:22:25;;;;;;;9.75;2.40;;;;;;;;;;5084769;28;20501;-71
2023/10/05 06:24:51;;;;;;;9.48;2.55;;;;;;;;;;5070003;28;20054;-71
2023/10/05 06:27:17;;;;;;;10.65;2.75;;;;;;;;;;5089326;28;20063;-71
2023/10/05 06:29:43;;;;;;;9.60;2.13;;;;;;;;;;5086140;28;20040;-71
2023/10/05 06:32:09;;;;;;;10.73;2.53;;;;;;;;;;5085232;28;20036;-72
2023/10/05 06:34:38;;;;;;;10.18;2.72;;;;;;;;;;5088431;28;20047;-72
2023/10/05 06:37:04;;;;;;;7.30;2.10;;;;;;;;;;5087972;28;20490;-72
2023/10/05 06:39:30;;;;;;;8.32;2.40;;;;;;;;;;5085852;28;20043;-72
2023/10/05 06:41:57;;;;;;;8.48;2.83;;;;;;;;;;5088596;28;20048;-71
2023/10/05 06:44:23;;;;;;;9.15;3.00;;;;;;;;;;5093216;28;20032;-72
2023/10/05 06:46:49;;;;;;;10.77;2.25;;;;;;;;;;5094090;28;20044;-72
2023/10/05 06:49:16;;;;;;;11.13;2.70;;;;;;;;;;5083161;28;20043;-72
2023/10/05 06:51:45;;;;;;;8.65;2.72;;;;;;;;;;5091843;28;20074;-72
2023/10/05 06:54:11;;;;;;;16.10;3.13;;;;;;;;;;5091103;28;20040;-72
2023/10/05 06:59:12;;;;;;;7.45;2.40;;;;;;;;;;5092174;28;20040;-67
2023/10/05 07:01:38;;;;;;;10.07;2.40;;;;;;;;;;5092962;28;20480;-62
2023/10/05 07:04:07;;;;;;;7.65;2.60;;;;;;;;;;5076229;28;20488;-63
2023/10/05 07:09:04;;;;;;;6.50;2.47;;;;;;;;;;5086089;28;20522;-61
2023/10/05 07:11:30;;;;;;;6.63;2.40;;;;;;;;;;5088640;28;20044;-60
2023/10/05 07:13:56;;;;;;;7.75;2.30;;;;;;;;;;5092562;28;20537;-60
2023/10/05 07:16:22;;;;;;;10.60;2.88;;;;;;;;;;5089561;28;20123;-60
2023/10/05 07:18:49;;;;;;;12.27;2.53;;;;;;;;;;5088195;28;20036;-60
2023/10/05 07:21:14;;;;;;;8.20;2.50;;;;;;;;;;5091226;28;20076;-61
2023/10/05 07:23:41;;;;;;;7.05;2.63;;;;;;;;;;5084601;28;20078;-61
2023/10/05 07:26:11;;;;;;;8.82;2.53;;;;;;;;;;5087555;28;20097;-61
2023/10/05 07:28:38;;;;;;;9.13;2.70;;;;;;;;;;5089928;28;20036;-61
2023/10/05 07:31:04;;;;;;;8.80;2.60;;;;;;;;;;5083478;28;20042;-62
2023/10/05 07:33:30;;;;;;;10.15;2.90;;;;;;;;;;5090256;28;20178;-62
2023/10/05 07:35:57;;;;;;;8.57;2.90;;;;;;;;;;5090778;28;20556;-62
2023/10/05 07:38:26;;;;;;;7.25;3.42;;;;;;;;;;5069493;28;20044;-62
2023/10/05 07:40:53;;;;;;;10.32;3.08;;;;;;;;;;5092481;28;20046;-61
2023/10/05 07:43:19;;;;;;;12.77;2.80;;;;;;;;;;5088463;28;20062;-62
2023/10/05 07:45:45;;;;;;;7.97;2.80;;;;;;;;;;5087126;28;20488;-62
2023/10/05 07:48:11;;;;;;;11.45;2.40;;;;;;;;;;5080521;28;20040;-62
2023/10/05 07:50:38;;;;;;;9.18;2.75;;;;;;;;;;5090209;28;20047;-62
2023/10/05 07:53:04;;;;;;;11.10;2.95;;;;;;;;;;5090420;28;20040;-62
2023/10/05 07:55:31;;;;;;;7.82;2.38;;;;;;;;;;5089788;28;20047;-62
2023/10/05 07:57:57;;;;;;;10.60;3.13;;;;;;;;;;5089496;28;20055;-61
2023/10/05 08:00:23;;;;;;;10.57;2.65;;;;;;;;;;5087463;28;20204;-62
2023/10/05 08:02:49;;;;;;;11.60;2.90;;;;;;;;;;5091142;28;20089;-62
2023/10/05 08:05:18;;;;;;;9.00;2.80;;;;;;;;;;5089161;28;20503;-62
2023/10/05 08:07:44;;;;;;;7.95;2.58;;;;;;;;;;5070815;28;20034;-62
2023/10/05 08:10:15;;;;;;;9.10;3.00;;;;;;;;;;5084503;28;20048;-62
2023/10/05 08:12:42;;;;;;;10.98;2.53;;;;;;;;;;5091180;28;20035;-62
2023/10/05 08:15:08;;;;;;;9.13;3.00;;;;;;;;;;5084636;28;20058;-62
2023/10/05 08:17:34;;;;;;;13.20;3.42;;;;;;;;;;5088677;28;20059;-62
2023/10/05 08:20:00;;;;;;;11.90;2.92;;;;;;;;;;5071164;28;20045;-62
2023/10/05 08:22:26;;;;;;;8.48;2.95;;;;;;;;;;5091038;28;20046;-62
2023/10/05 08:24:52;;;;;;;6.47;2.78;;;;;;;;;;5068170;28;20502;-62
2023/10/05 08:27:19;;;;;;;11.98;3.28;;;;;;;;;;5085014;28;20044;-62
2023/10/05 08:29:45;;;;;;;13.15;2.92;;;;;;;;;;5081255;28;20423;-62
2023/10/05 08:32:13;;;;;;;12.07;2.75;;;;;;;;;;5085845;28;20038;-62
2023/10/05 08:34:41;;;;;;;8.43;2.20;;;;;;;;;;5088552;28;20123;-62
2023/10/05 08:37:08;;;;;;;15.27;3.25;;;;;;;;;;5083614;28;20068;-62
2023/10/05 08:39:35;;;;;;;10.95;2.67;;;;;;;;;;5087291;28;20044;-63
2023/10/05 08:42:06;;;;;;;12.13;3.75;;;;;;;;;;5084342;28;20040;-62
2023/10/05 08:44:36;;;;;;;10.93;2.78;;;;;;;;;;5085672;28;20040;-62
2023/10/05 08:47:05;;;;;;;7.22;2.90;;;;;;;;;;5087401;28;20089;-63
2023/10/05 08:49:36;;;;;;;9.95;2.80;;;;;;;;;;5087820;28;20032;-62
2023/10/05 08:52:12;;;;;;;10.90;2.78;;;;;;;;;;5087486;28;20040;-62
2023/10/05 08:54:38;;;;;;;16.02;3.33;;;;;;;;;;5090193;28;20412;-62
2023/10/05 08:57:10;;;;;;;13.05;3.08;;;;;;;;;;5090436;28;20052;-62
2023/10/05 08:59:46;;;;;;;13.07;2.75;;;;;;;;;;5091000;28;20040;-62
2023/10/05 09:02:18;;;;;;;12.48;2.83;;;;;;;;;;5085482;28;20404;-62
2023/10/05 09:05:00;;;;;;;8.27;3.15;;;;;;;;;;5088759;28;20491;-61
2023/10/05 09:07:27;;;;;;;11.00;3.30;;;;;;;;;;5087586;28;20036;-62
2023/10/05 09:09:54;;;;;;;11.63;2.50;;;;;;;;;;5074880;28;20081;-62
2023/10/05 09:12:36;;;;;;;13.40;2.58;;;;;;;;;;5080938;28;20123;-62
2023/10/05 09:15:09;;;;;;;8.68;2.67;;;;;;;;;;5087066;28;20048;-62
2023/10/05 09:17:35;;;;;;;9.60;3.40;;;;;;;;;;5084392;28;20044;-62
2023/10/05 09:20:23;;;;;;;8.93;3.08;;;;;;;;;;5087238;28;20071;-62
2023/10/05 09:22:50;;;;;;;10.38;3.30;;;;;;;;;;5085325;28;20438;-62
2023/10/05 09:25:17;;;;;;;11.88;3.08;;;;;;;;;;5085180;28;20043;-62
2023/10/05 09:27:50;;;;;;;8.40;2.30;;;;;;;;;;5088860;28;20040;-62
2023/10/05 09:30:20;;;;;;;10.50;3.05;;;;;;;;;;5090687;28;20046;-62
2023/10/05 09:32:46;;;;;;;10.20;3.13;;;;;;;;;;5083790;28;20048;-62
2023/10/05 09:35:28;;;;;;;8.00;2.35;;;;;;;;;;5090404;28;20044;-62
2023/10/05 09:37:58;;;;;;;11.40;2.50;;;;;;;;;;5086390;28;20058;-62
2023/10/05 09:40:26;;;;;;;8.93;3.03;;;;;;;;;;5088003;28;20546;-62
2023/10/05 09:42:55;;;;;;;10.02;3.17;;;;;;;;;;5072123;28;20142;-62
2023/10/05 09:45:23;;;;;;;10.48;2.78;;;;;;;;;;5086496;28;20036;-62
2023/10/05 09:47:51;;;;;;;6.93;2.58;;;;;;;;;;5090190;28;20466;-62
2023/10/05 09:50:21;;;;;;;11.43;2.80;;;;;;;;;;5086283;28;20079;-62
2023/10/05 09:52:48;;;;;;;12.13;2.97;;;;;;;;;;5082631;28;20553;-62
2023/10/05 09:55:18;;;;;;;9.95;3.10;;;;;;;;;;5094201;28;20060;-62
2023/10/05 09:57:51;;;;;;;8.65;3.10;;;;;;;;;;5093987;28;20075;-62
2023/10/05 10:00:47;;;;;;;9.85;3.22;;;;;;;;;;5073534;28;20047;-62
2023/10/05 10:03:14;;;;;;;10.80;3.25;;;;;;;;;;5089699;28;20143;-62
2023/10/05 10:05:43;;;;;;;8.25;2.78;;;;;;;;;;5093954;28;20488;-62
2023/10/05 10:08:12;;;;;;;9.48;2.78;;;;;;;;;;5091756;28;20560;-62
2023/10/05 10:10:40;;;;;;;8.30;3.03;;;;;;;;;;5091483;28;20036;-62
2023/10/05 10:13:11;;;;;;;12.65;3.22;;;;;;;;;;5086922;28;20044;-62
2023/10/05 10:15:46;;;;;;;11.70;3.78;;;;;;;;;;5087036;28;20044;-62
2023/10/05 10:18:16;;;;;;;14.48;3.28;;;;;;;;;;5091709;28;20089;-61
2023/10/05 10:20:45;;;;;;;14.93;3.28;;;;;;;;;;5093187;28;20040;-62
2023/10/05 10:23:18;;;;;;;16.25;3.33;;;;;;;;;;5086331;28;20047;-62
2023/10/05 10:25:44;;;;;;;11.23;2.88;;;;;;;;;;5067604;28;20408;-62
2023/10/05 10:28:20;;;;;;;13.68;3.33;;;;;;;;;;5085996;28;21378;-62
2023/10/05 10:31:06;;;;;;;14.57;2.90;;;;;;;;;;5086961;28;20045;-62
2023/10/05 10:33:35;;;;;;;11.80;3.10;;;;;;;;;;5091755;28;20032;-62
2023/10/05 10:36:04;;;;;;;15.80;3.90;;;;;;;;;;5089821;28;20044;-62
2023/10/05 10:38:30;;;;;;;10.32;3.15;;;;;;;;;;5091953;28;20047;-62
2023/10/05 10:41:16;;;;;;;8.57;2.80;;;;;;;;;;5086673;28;20424;-62
2023/10/05 10:43:49;;;;;;;12.13;2.42;;;;;;;;;;5091192;28;20064;-62
2023/10/05 10:46:28;;;;;;;11.57;3.33;;;;;;;;;;5091794;28;20093;-62
2023/10/05 10:48:57;;;;;;;15.00;2.67;;;;;;;;;;5087524;28;20040;-62
2023/10/05 10:51:23;;;;;;;11.30;2.67;;;;;;;;;;5093214;28;20407;-62
2023/10/05 10:53:58;;;;;;;9.57;2.42;;;;;;;;;;5088809;28;20119;-62
2023/10/05 10:56:34;;;;;;;12.75;3.10;;;;;;;;;;5090398;28;20051;-62
2023/10/05 10:59:11;;;;;;;13.10;3.50;;;;;;;;;;5092730;28;20075;-62
2023/10/05 11:01:52;;;;;;;12.55;3.30;;;;;;;;;;5092119;28;20043;-62
2023/10/05 11:04:25;;;;;;;11.05;3.08;;;;;;;;;;5092424;28;20083;-62
2023/10/05 11:06:59;;;;;;;8.30;2.50;;;;;;;;;;5087936;28;20036;-62
2023/10/05 11:09:35;;;;;;;9.85;2.90;;;;;;;;;;5093017;28;20075;-62
2023/10/05 11:12:13;;;;;;;12.02;2.78;;;;;;;;;;5088779;28;20581;-62
2023/10/05 11:14:42;;;;;;;12.30;2.88;;;;;;;;;;5091168;28;20124;-62
2023/10/05 11:17:30;;;;;;;9.55;3.10;;;;;;;;;;5092186;28;20044;-62
2023/10/05 11:19:58;;;;;;;9.40;2.67;;;;;;;;;;5086456;28;20470;-62
2023/10/05 11:22:24;;;;;;;12.45;3.65;;;;;;;;;;5092422;28;20048;-62
2023/10/05 11:25:14;;;;;;;11.95;3.20;;;;;;;;;;5089990;28;20040;-62
2023/10/05 11:27:41;;;;;;;;;;;;;;;;;;5090294;28;20056;-62
2023/10/05 11:30:07;;;;;;;10.38;2.90;;;;;;;;;;5091881;28;19927;-62
2023/10/05 11:32:34;;;;;;;12.63;3.28;;;;;;;;;;5090051;28;20039;-62
2023/10/05 11:35:04;;;;;;;11.50;3.22;;;;;;;;;;5092679;28;20047;-62
2023/10/05 11:37:32;;;;;;;7.18;2.60;;;;;;;;;;5089488;28;20079;-62
2023/10/05 11:40:01;;;;;;;13.30;2.95;;;;;;;;;;5092191;28;20051;-62
2023/10/05 11:42:35;;;;;;;12.57;3.40;;;;;;;;;;5092393;28;20072;-62
2023/10/05 11:45:04;;;;;;;10.38;3.22;;;;;;;;;;5090121;28;20044;-62
2023/10/05 11:47:35;;;;;;;14.25;3.65;;;;;;;;;;5089577;28;20050;-62
2023/10/05 11:50:07;;;;;;;15.93;3.42;;;;;;;;;;5088663;28;20047;-62
2023/10/05 11:52:34;;;;;;;12.27;3.38;;;;;;;;;;5091999;28;20071;-63
2023/10/05 11:55:00;;;;;;;9.30;2.92;;;;;;;;;;5092267;28;20161;-62
2023/10/05 11:57:28;;;;;;;9.07;2.90;;;;;;;;;;5091452;28;20522;-66
2023/10/05 11:59:59;;;;;;;13.73;3.35;;;;;;;;;;5090354;28;20040;-63
2023/10/05 12:02:26;;;;;;;12.10;3.70;;;;;;;;;;5091304;28;20040;-63
2023/10/05 12:04:52;;;;;;;9.57;2.75;;;;;;;;;;5087014;28;20152;-64
2023/10/05 12:07:18;;;;;;;17.38;3.55;;;;;;;;;;5085229;28;20047;-64
2023/10/05 12:09:44;;;;;;;9.65;2.80;;;;;;;;;;5091936;28;20039;-63
2023/10/05 12:12:13;;;;;;;6.97;2.50;;;;;;;;;;5092065;28;20044;-63
2023/10/05 12:14:41;;;;;;;9.50;2.78;;;;;;;;;;5086299;28;20039;-63
2023/10/05 12:17:07;;;;;;;8.60;2.47;;;;;;;;;;5087698;28;20044;-64
2023/10/05 12:19:33;;;;;;;10.13;2.58;;;;;;;;;;5090987;28;20043;-63
2023/10/05 12:22:01;;;;;;;8.77;2.92;;;;;;;;;;5091351;28;20047;-64
2023/10/05 12:24:27;;;;;;;9.77;2.70;;;;;;;;;;5085183;28;20183;-63
2023/10/05 12:26:53;;;;;;;8.45;2.80;;;;;;;;;;5090901;28;20518;-63
2023/10/05 12:29:20;;;;;;;12.05;2.90;;;;;;;;;;5090727;28;20048;-63
2023/10/05 12:31:47;;;;;;;11.50;3.50;;;;;;;;;;5089994;28;20051;-62
2023/10/05 12:34:16;;;;;;;10.15;3.00;;;;;;;;;;5089926;28;20077;-63
2023/10/05 12:36:49;;;;;;;8.45;3.20;;;;;;;;;;5089145;28;20036;-62
2023/10/05 12:39:17;;;;;;;9.30;2.95;;;;;;;;;;5090691;28;20436;-62
2023/10/05 12:41:43;;;;;;;6.65;2.72;;;;;;;;;;5086358;28;20040;-62
2023/10/05 12:44:13;;;;;;;10.38;2.63;;;;;;;;;;5088690;28;20044;-63
2023/10/05 12:46:42;;;;;;;8.43;2.38;;;;;;;;;;5089061;28;20499;-63
2023/10/05 12:49:08;;;;;;;9.27;2.90;;;;;;;;;;5090366;28;20038;-63
2023/10/05 12:51:35;;;;;;;9.85;2.85;;;;;;;;;;5091376;28;20406;-63
2023/10/05 12:54:03;;;;;;;10.30;2.67;;;;;;;;;;5088720;28;20050;-63
2023/10/05 12:56:29;;;;;;;10.40;3.17;;;;;;;;;;5077158;28;20040;-63
2023/10/05 12:58:55;;;;;;;11.85;3.67;;;;;;;;;;5082929;28;20482;-66
2023/10/05 13:01:26;;;;;;;8.30;2.80;;;;;;;;;;5078825;28;20067;-66
2023/10/05 13:03:52;;;;;;;12.30;3.87;;;;;;;;;;5080085;28;20167;-64
2023/10/05 13:06:18;;;;;;;7.20;2.13;;;;;;;;;;5089661;28;20302;-63
2023/10/05 13:08:44;;;;;;;6.68;2.45;;;;;;;;;;5110628;22;20037;-70
2023/10/05 13:11:11;;;;;;;7.88;2.50;;;;;;;;;;5085050;28;20097;-71
2023/10/05 13:13:39;;;;;;;8.43;2.60;;;;;;;;;;5083050;28;20033;-71
2023/10/05 13:16:13;;;;;;;7.70;3.28;;;;;;;;;;5082834;28;20048;-71
2023/10/05 13:18:39;;;;;;;10.65;2.72;;;;;;;;;;5064422;28;20070;-71
2023/10/05 13:21:09;;;;;;;8.82;3.20;;;;;;;;;;5067051;28;20531;-71
2023/10/05 13:23:35;;;;;;;11.27;3.28;;;;;;;;;;5051250;28;20092;-72
2023/10/05 13:26:06;;;;;;;12.13;2.65;;;;;;;;;;5067083;28;20414;-71
2023/10/05 13:28:32;;;;;;;16.45;3.15;;;;;;;;;;5067904;28;20037;-72
2023/10/05 13:30:58;;;;;;;12.00;3.03;;;;;;;;;;5055579;28;20048;-72
2023/10/05 13:33:34;;;;;;;11.88;3.20;;;;;;;;;;5070296;28;20047;-71
2023/10/05 13:36:07;;;;;;;8.75;2.63;;;;;;;;;;5054204;28;20131;-72
2023/10/05 13:38:33;;;;;;;8.88;3.03;;;;;;;;;;5069198;28;20037;-72
2023/10/05 13:43:39;;;;;;;14.98;3.38;;;;;;;;;;5049841;28;20057;-71
2023/10/05 13:46:19;;;;;;;14.75;3.13;;;;;;;;;;5055251;28;20097;-72
2023/10/05 13:48:55;;;;;;;8.35;2.67;;;;;;;;;;5053242;28;20115;-71
2023/10/05 13:51:23;;;;;;;7.68;2.67;;;;;;;;;;5050198;28;20044;-71
2023/10/05 13:53:55;;;;;;;10.05;2.50;;;;;;;;;;5068318;28;20043;-71
2023/10/05 13:56:27;;;;;;;11.65;2.42;;;;;;;;;;5071976;28;20052;-71
2023/10/05 13:58:57;;;;;;;8.90;2.35;;;;;;;;;;5034344;28;20040;-72
2023/10/05 14:01:24;;;;;;;10.30;2.83;;;;;;;;;;5046192;28;20101;-72
2023/10/05 14:03:53;;;;;;;9.00;2.90;;;;;;;;;;5066920;28;20470;-71
2023/10/05 14:06:27;;;;;;;9.20;2.80;;;;;;;;;;5059610;28;20049;-72
2023/10/05 14:08:57;;;;;;;5.97;2.20;;;;;;;;;;5013032;28;1130060;-72
2023/10/05 14:11:23;;;;;;;13.73;3.17;;;;;;;;;;5074491;28;20040;-72
2023/10/05 14:13:49;;;;;;;8.32;2.42;;;;;;;;;;5073979;28;20491;-72
2023/10/05 14:16:15;;;;;;;13.45;3.28;;;;;;;;;;5067257;28;20052;-72
2023/10/05 14:18:41;;;;;;;7.93;2.42;;;;;;;;;;5069400;28;20040;-72
2023/10/05 14:21:09;;;;;;;9.68;2.22;;;;;;;;;;5070620;28;20055;-72
2023/10/05 14:23:35;;;;;;;12.70;2.75;;;;;;;;;;5073195;28;20037;-72
2023/10/05 14:26:03;;;;;;;8.18;2.50;;;;;;;;;;5042814;28;20577;-72
2023/10/05 14:28:29;;;;;;;11.90;2.70;;;;;;;;;;5055658;28;20064;-72
2023/10/05 14:30:57;;;;;;;12.77;3.00;;;;;;;;;;5072392;28;20032;-72
2023/10/05 14:33:23;;;;;;;12.20;2.92;;;;;;;;;;5067985;28;20044;-72
2023/10/05 14:35:56;;;;;;;9.43;2.47;;;;;;;;;;5055505;28;20044;-72
2023/10/05 14:38:22;;;;;;;10.43;2.55;;;;;;;;;;5064996;28;20087;-72
2023/10/05 14:40:53;;;;;;;5.72;2.53;;;;;;;;;;5067823;28;20127;-72
2023/10/05 14:43:32;;;;;;;12.38;3.10;;;;;;;;;;5064495;28;20055;-72
2023/10/05 14:46:00;;;;;;;7.05;2.22;;;;;;;;;;5064595;28;20044;-71
2023/10/05 14:48:31;;;;;;;8.90;2.20;;;;;;;;;;5068470;28;20367;-71
2023/10/05 14:50:59;;;;;;;7.55;1.98;;;;;;;;;;5070860;28;20044;-71
2023/10/05 14:53:25;;;;;;;8.63;2.60;;;;;;;;;;5067843;28;20036;-71
2023/10/05 14:55:51;;;;;;;7.88;2.10;;;;;;;;;;5068515;28;20046;-71
2023/10/05 14:58:18;;;;;;;8.30;2.15;;;;;;;;;;5068899;28;20124;-71
2023/10/05 15:00:45;;;;;;;7.65;1.85;;;;;;;;;;5051815;28;20123;-71
2023/10/05 15:03:14;;;;;;;5.78;2.20;;;;;;;;;;5061246;28;20048;-72
2023/10/05 15:05:41;;;;;;;7.35;1.77;;;;;;;;;;5050875;28;20119;-71
2023/10/05 15:08:08;;;;;;;8.57;2.45;;;;;;;;;;5051287;28;20045;-71